»·PEaware :: N114LW L71-KTRM

N114LW :: L71-KTRM

FLIGHT INFORMATION

Flight Status: Arrived
Operator: Privately registered:
United States
More flights under this callsign
Pilot: Lee W. (44)
Aircraft: MOONEY M-20 201 202 205 220 ATS MSE
(M20P)
More flights by this aircraft type
Origin: L71 California City Mun
United States
Destination: KTRM Desert Resorts Regl
United States
More flights between these airports :: More routes between these airports
Route: VCV PSP
File this flight plan on PilotEdge
Remarks:
Altitude:
(Current/Filed)
9,500ft
Speed:
(Current/Filed)
150kts
Departed: 29-Jul-13 02:47 PM
Arrived: 29-Jul-13 04:05 PM
Distance/Time
Traveled:
130nm/1:18
Distance/Time
To Go:
Arrived

Flight Plot

Page will automatically refresh every two minutes.


Map Options




Map Legend


Flown Route
Filed Route
Departure Airport
Arrival Airport
Navaid (VOR, NDB)
Fix

Horizontal Profiles

Position Reports

Time Latitude Longitude Heading Altitude Ground
Speed
29-Jul-13 14:37 35.152986 -118.006854 359 2457ft 0kts
29-Jul-13 14:44 35.153008 -118.006857 355 2457ft 0kts
29-Jul-13 14:45 35.153008 -118.006857 355 2457ft 0kts
29-Jul-13 14:46 35.153008 -118.006857 355 2457ft 0kts
29-Jul-13 14:47 35.153008 -118.006857 355 2457ft 0kts
29-Jul-13 14:48 35.153041 -118.006861 351 2457ft 2kts
29-Jul-13 14:49 35.150424 -118.023240 260 2517ft 95kts
29-Jul-13 14:50 35.153568 -118.058884 332 3068ft 120kts
29-Jul-13 14:51 35.176387 -118.036086 61 3784ft 123kts
29-Jul-13 14:52 35.197057 -118.001640 47 3981ft 128kts
29-Jul-13 14:53 35.225148 -117.968361 50 3727ft 153kts
29-Jul-13 14:54 35.223011 -117.931215 140 4288ft 114kts
29-Jul-13 14:55 35.202165 -117.910045 139 4829ft 84kts
29-Jul-13 14:56 35.184355 -117.891942 140 5031ft 92kts
29-Jul-13 14:57 35.163287 -117.870085 140 5160ft 110kts
29-Jul-13 14:58 35.138629 -117.844420 139 5279ft 122kts
29-Jul-13 14:59 35.114977 -117.819785 139 5642ft 108kts
29-Jul-13 15:00 35.094206 -117.798250 139 6103ft 88kts
29-Jul-13 15:01 35.076261 -117.779776 139 6263ft 97kts
29-Jul-13 15:02 35.057512 -117.760434 139 6619ft 82kts
29-Jul-13 15:03 35.041596 -117.743695 128 6849ft 75kts
29-Jul-13 15:04 35.028470 -117.722185 132 7021ft 76kts
29-Jul-13 15:05 35.012366 -117.704845 154 7168ft 79kts
29-Jul-13 15:06 34.993420 -117.693110 137 7362ft 75kts
29-Jul-13 15:07 34.971573 -117.677791 151 7418ft 97kts
29-Jul-13 15:08 34.947315 -117.660975 149 7535ft 109kts
29-Jul-13 15:09 34.920115 -117.641048 148 7650ft 118kts
29-Jul-13 15:10 34.893864 -117.621234 148 7915ft 111kts
29-Jul-13 15:11 34.868867 -117.602099 147 8198ft 104kts
29-Jul-13 15:12 34.845514 -117.584103 147 8482ft 96kts
29-Jul-13 15:13 34.824206 -117.567630 147 8758ft 85kts
29-Jul-13 15:14 34.805836 -117.553451 147 8939ft 77kts
29-Jul-13 15:15 34.787365 -117.539223 147 9087ft 87kts
29-Jul-13 15:16 34.764354 -117.521430 147 9412ft 115kts
29-Jul-13 15:17 34.734739 -117.498510 147 9422ft 133kts
29-Jul-13 15:18 34.703020 -117.473974 147 9420ft 139kts
29-Jul-13 15:19 34.670065 -117.448498 147 9421ft 143kts
29-Jul-13 15:20 34.636170 -117.422329 147 9420ft 148kts
29-Jul-13 15:21 34.601226 -117.395376 147 9420ft 150kts
29-Jul-13 15:22 34.564272 -117.373608 160 9420ft 152kts
29-Jul-13 15:23 34.526510 -117.356308 159 9420ft 152kts
29-Jul-13 15:24 34.487928 -117.339083 160 9419ft 153kts
29-Jul-13 15:25 34.453794 -117.324061 160 9419ft 153kts
29-Jul-13 15:26 34.426883 -117.312226 160 9419ft 153kts
29-Jul-13 15:27 34.401195 -117.300932 160 9419ft 153kts
29-Jul-13 15:28 34.363591 -117.284401 160 9419ft 153kts
29-Jul-13 15:29 34.324704 -117.267326 160 9419ft 153kts
29-Jul-13 15:30 34.286475 -117.252490 164 9420ft 153kts
29-Jul-13 15:31 34.246034 -117.240129 167 9420ft 153kts
29-Jul-13 15:32 34.205506 -117.231012 171 9420ft 153kts
29-Jul-13 15:33 34.163488 -117.224916 175 9417ft 153kts
29-Jul-13 15:34 34.149121 -117.217486 122 9413ft 153kts
29-Jul-13 15:35 34.141676 -117.197488 113 9420ft 152kts
29-Jul-13 15:36 34.125133 -117.151114 113 9419ft 153kts
29-Jul-13 15:37 34.108760 -117.104802 113 9419ft 153kts
29-Jul-13 15:38 34.087686 -117.062796 137 9421ft 153kts
29-Jul-13 15:39 34.056544 -117.029224 138 9419ft 153kts
29-Jul-13 15:40 34.028920 -116.990776 122 9419ft 153kts
29-Jul-13 15:41 34.009704 -116.945464 113 9419ft 153kts
29-Jul-13 15:42 33.994278 -116.897808 111 9419ft 153kts
29-Jul-13 15:43 33.978970 -116.850373 110 9419ft 153kts
29-Jul-13 15:44 33.965356 -116.801788 108 9419ft 153kts
29-Jul-13 15:45 33.952426 -116.752832 107 9419ft 153kts
29-Jul-13 15:46 33.939931 -116.704434 107 9419ft 153kts
29-Jul-13 15:47 33.927445 -116.655677 107 9419ft 153kts
29-Jul-13 15:48 33.915022 -116.607072 107 9419ft 154kts
29-Jul-13 15:49 33.902643 -116.558650 107 9419ft 154kts
29-Jul-13 15:50 33.890112 -116.509692 107 9419ft 154kts
29-Jul-13 15:51 33.879649 -116.468872 107 9420ft 154kts
29-Jul-13 15:52 33.867542 -116.421815 109 9560ft 148kts
29-Jul-13 15:53 33.832747 -116.382231 138 9560ft 151kts
29-Jul-13 15:54 33.806691 -116.354692 138 9560ft 152kts
29-Jul-13 15:55 33.775074 -116.321287 138 9559ft 153kts
29-Jul-13 15:56 33.744612 -116.289103 138 9270ft 145kts
29-Jul-13 15:57 33.711828 -116.257343 147 8308ft 160kts
29-Jul-13 15:58 33.674781 -116.228161 146 7339ft 164kts
29-Jul-13 15:59 33.634977 -116.210097 182 6357ft 158kts
29-Jul-13 16:00 33.592252 -116.211663 181 5375ft 156kts
29-Jul-13 16:01 33.549063 -116.213227 181 4373ft 155kts
29-Jul-13 16:02 33.510629 -116.203387 109 3369ft 154kts
29-Jul-13 16:03 33.515647 -116.157466 23 2377ft 153kts
29-Jul-13 16:04 33.557033 -116.156148 357 1396ft 152kts
29-Jul-13 16:05 33.595212 -116.156747 0 701ft 111kts
29-Jul-13 16:06 33.623887 -116.156518 2 -111ft 76kts
29-Jul-13 16:07 33.629678 -116.157219 274 -111ft 9kts

Navigation Log

Ident Type
1. L71 Airport
2. VCV Navaid
3. PSP Navaid
4. KTRM Airport